Station: Cressy

  Atmospheric Gas Attenuation - ITU Rec 676-11   --------------- db/100km ---------------
Date Time Temp RH % AH g/m3 Dew Point Wind Direction Speed kph Gust kph Barometer mB Rainfall Since 9am 24GHz 47GHz 76GHz 122GHz 134GHz 241GHz
22 12:40 26.1 30 7.34 7.2 20 26 1013.1 0 16.4 20.9 30.0 78.5 70.5 242.0
22 12:30 25.8 28 6.74 5.9 13 20 1013.1 0 15.2 20.2 28.2 73.6 64.3 220.5
22 12:20 25.3 27 6.32 5 13 15 1013.1 0 14.3 19.8 27.0 70.4 60.3 206.3
22 12:10 25.1 28 6.48 5.3 13 15 1013.1 0 14.7 20.0 27.6 72.0 62.1 212.7
22 12:00 24.9 31 7.1 6.6 15 22 1013.1 0 15.9 20.9 29.6 77.5 68.9 236.4
22 11:50 24.7 30 6.79 6 15 19 1013.1 0 15.3 20.5 28.7 75.0 65.7 225.3
22 11:40 24 31 6.74 5.8 17 19 1013.1 0 15.2 20.6 28.8 75.2 65.8 225.3
22 11:30 23.9 35 7.57 7.5 15 24 1013.1 0 17.0 21.7 31.6 82.6 74.9 257.4
22 11:20 23.6 33 7.02 6.4 13 17 1013.1 0 15.8 21.0 29.8 78.0 69.1 237.1
22 11:10 23.5 42 8.88 9.9 13 15 1013.1 0 19.7 23.7 36.3 95.2 90.3 311.2
22 11:00 23 47 9.66 11.1 11 19 1013.1 0 21.4 24.9 39.3 103.3 100.1 345.7
22 10:50 22.7 48 9.7 11.1 13 15 1013.1 0 21.5 25.1 39.6 104.1 101.0 348.7
22 10:40 22.2 50 9.82 11.3 11 15 1013.1 0 21.8 25.4 40.3 105.9 103.1 356.1
22 10:30 21.4 53 9.94 11.4 11 15 1013.1 0 22.0 25.8 41.2 108.2 105.7 364.9
22 10:20 20.7 56 10.08 11.6 11 15 1013.1 0 22.4 26.2 42.1 110.6 108.4 374.3
22 10:10 20.7 60 10.8 12.7 15 17 1013.1 0 23.9 27.4 44.9 118.1 117.6 406.5
22 10:00 20.3 61 10.73 12.5 11 19 1013.1 0 23.8 27.4 44.8 117.9 117.3 405.4
22 09:50 19.7 62 10.53 12.2 15 19 1013.1 0 23.4 27.2 44.4 116.7 115.6 399.4
22 09:40 19.1 64 10.49 12.1 11 13 1013.1 0 23.3 27.4 44.5 117.2 116.0 400.6
22 09:30 18.3 69 10.79 12.5 7 13 1013.1 0 24.0 28.1 46.2 121.6 121.2 418.7
22 09:20 17.6 78 11.7 13.7 7 9 1013.1 0 26.0 29.8 50.4 132.9 134.8 466.1
22 09:10 17.3 82 12.08 14.2 7 9 1013.1 0 26.8 30.6 52.3 137.7 140.6 486.6
22 09:00 16.3 90 12.49 14.7 6 7 1013.1 0 27.8 31.7 54.7 144.3 148.4 513.6
22 08:50 15.5 95 12.56 14.7 7 7 1013.1 0 28.0 32.1 55.6 146.7 151.0 522.6
22 08:40 15.1 99 12.77 14.9 0 0 1013.1 0 28.5 32.6 56.9 150.0 155.0 536.3
22 08:30 14.9 100 12.74 14.9 6 7 1013.1 0 28.4 32.7 56.9 150.0 154.9 536.1
22 08:20 14.1 100 12.14 14.1 7 9 1013.1 0 27.2 31.9 54.7 144.3 147.6 510.4
22 08:10 14.2 100 12.21 14.2 4 6 1013.1 0 27.3 32.0 55.0 145.0 148.4 513.4
22 08:00 13.9 100 11.99 13.9 0 6 1013.1 0 26.9 31.7 54.2 142.9 145.8 504.0
22 07:50 13.3 100 11.55 13.3 0 0 1013.1 0 26.0 31.1 52.6 138.7 140.4 485.2
22 07:40 12.7 100 11.13 12.7 0 0 1013.1 0 25.1 30.6 51.2 134.7 135.3 467.4
22 07:30 12.2 100 10.79 12.2 2 6 1013.1 0 24.4 30.1 50.0 131.6 131.2 453.0
22 07:20 11.8 100 10.53 11.8 0 0 1013.1 0 23.8 29.8 49.1 129.2 128.1 442.1
22 07:10 11.4 99 10.16 11.2 7 7 1013.1 0 23.1 29.3 47.7 125.5 123.4 425.6
22 07:00 10.9 99 9.85 10.7 6 9 1013.1 0 22.4 28.9 46.6 122.6 119.7 412.7
22 06:50 10.4 99 9.54 10.2 9 9 1013.1 0 21.8 28.5 45.6 119.8 116.1 399.8
22 06:40 10 98 9.21 9.7 9 9 1013.1 0 21.1 28.1 44.4 116.6 112.0 385.4
22 06:30 9.3 97 8.72 8.8 0 0 1013.1 0 20.1 27.4 42.6 112.0 106.0 364.5
22 06:20 9 97 8.55 8.5 0 0 1013.1 0 19.7 27.2 42.1 110.5 104.0 357.5
22 06:10 9.6 97 8.89 9.1 0 0 1013.1 0 20.4 27.6 43.2 113.5 108.0 371.5
22 06:00 9.1 96 8.52 8.5 0 0 1013.1 0 19.6 27.2 41.9 110.0 103.5 355.6
22 05:50 9.4 96 8.69 8.8 0 0 1013.1 0 20.0 27.4 42.5 111.5 105.4 362.5
22 05:40 10 96 9.02 9.4 0 0 1013.1 0 20.7 27.7 43.5 114.4 109.3 376.0
22 05:20 10.5 96 9.31 9.9 0 0 1013.1 0 21.3 28.1 44.5 117.0 112.6 387.8
22 05:10 9.6 95 8.7 8.8 0 0 1013.1 0 20.0 27.3 42.4 111.3 105.3 362.1
22 05:00 9.9 95 8.87 9.1 0 0 1013.1 0 20.4 27.5 43.0 112.8 107.3 369.0
22 04:50 11.2 95 9.63 10.4 0 0 1013.1 0 21.9 28.4 45.5 119.6 116.1 400.2
22 04:40 10.1 93 8.8 9 6 7 1013.1 0 20.2 27.3 42.5 111.8 106.0 364.6
22 04:30 11 94 9.41 10.1 6 7 1013.1 0 21.5 28.1 44.7 117.4 113.3 390.3
22 04:20 11.7 95 9.94 10.9 7 7 1013.1 0 22.6 28.8 46.5 122.4 119.8 413.0
22 04:10 11.8 94 9.89 10.9 0 0 1013.1 0 22.5 28.7 46.3 121.7 118.9 409.9
22 04:00 11 92 9.21 9.8 0 6 1013.1 0 21.0 27.8 43.8 115.1 110.5 380.4
22 03:50 11.5 91 9.4 10.1 4 6 1013.1 0 21.4 27.9 44.3 116.5 112.4 387.3
22 03:40 12.7 92 10.24 11.4 7 9 1013.1 0 23.2 29.0 47.2 124.3 122.5 422.5
22 03:30 12 90 9.59 10.4 6 7 1013.1 0 21.8 28.1 44.9 117.9 114.4 394.1
22 03:20 13.1 91 10.38 11.7 7 7 1013.1 0 23.4 29.1 47.6 125.3 123.8 427.2
22 03:10 12.9 90 10.14 11.3 7 9 1013.1 0 22.9 28.7 46.7 122.8 120.7 416.4
22 03:00 13.2 90 10.33 11.6 9 11 1013.1 0 23.3 29.0 47.3 124.5 122.9 424.2
22 02:50 13.1 90 10.27 11.5 7 7 1013.1 0 23.2 28.9 47.1 124.0 122.2 421.8
22 02:40 13.2 90 10.33 11.6 9 9 1013.1 0 23.3 29.0 47.3 124.5 122.9 424.2
22 02:30 13.2 89 10.22 11.4 7 9 1013.1 0 23.1 28.8 46.9 123.3 121.4 418.7
22 02:20 13.5 88 10.29 11.6 6 7 1013.1 0 23.2 28.8 47.0 123.6 121.9 420.6
22 02:10 13.5 87 10.18 11.4 4 7 1013.1 0 23.0 28.6 46.5 122.3 120.3 415.2
22 02:00 13.8 87 10.37 11.7 7 9 1013.1 0 23.4 28.8 47.1 124.0 122.5 422.9
22 01:50 13.9 86 10.31 11.6 6 7 1013.1 0 23.2 28.7 46.8 123.2 121.5 419.4
22 01:40 14.3 84 10.32 11.6 7 7 1013.1 0 23.2 28.6 46.6 122.7 121.0 417.7
22 01:30 14.5 84 10.45 11.8 11 15 1013.1 0 23.5 28.8 47.1 123.8 122.5 423.0
22 01:20 14.3 84 10.32 11.6 9 11 1013.1 0 23.2 28.6 46.6 122.7 121.0 417.7
22 01:10 14.7 82 10.32 11.7 9 11 1013.1 0 23.2 28.5 46.4 122.0 120.4 415.6
22 01:00 14.8 82 10.39 11.8 11 13 1013.1 0 23.4 28.6 46.6 122.7 121.2 418.4
22 00:50 14.6 82 10.26 11.6 9 9 1013.1 0 23.1 28.4 46.2 121.5 119.7 413.2
22 00:40 14.6 81 10.14 11.4 9 11 1013.1 0 22.8 28.2 45.7 120.2 118.1 407.4
22 00:30 14.9 80 10.2 11.5 11 13 1013.1 0 23.0 28.2 45.8 120.4 118.4 408.7
22 00:20 15 80 10.26 11.6 9 11 1013.1 0 23.1 28.3 46.0 120.9 119.1 411.1
22 00:10 15.2 79 10.25 11.6 11 13 1013.1 0 23.0 28.2 45.8 120.5 118.7 409.5
22 00:00 15.2 79 10.25 11.6 9 11 1013.1 0 23.0 28.2 45.8 120.5 118.7 409.5
21 23:50 15.3 79 10.32 11.7 7 9 1013.1 0 23.2 28.3 46.0 121.1 119.5 412.4
21 23:40 15.3 79 10.32 11.7 9 9 1013.1 0 23.2 28.3 46.0 121.1 119.5 412.4
21 23:30 15.5 79 10.44 11.9 9 11 1013.1 0 23.4 28.4 46.4 122.1 120.8 417.1
21 23:20 15.5 80 10.57 12.1 9 9 1013.1 0 23.7 28.6 47.0 123.6 122.6 423.3
21 23:10 15.4 81 10.64 12.2 9 11 1013.1 0 23.9 28.8 47.3 124.5 123.7 427.3
21 23:00 15.5 81 10.71 12.3 9 11 1013.1 0 24.0 28.9 47.6 125.2 124.5 430.1
21 22:50 15.7 80 10.7 12.3 9 11 1013.1 0 24.0 28.8 47.4 124.7 124.1 428.5
21 22:40 16 79 10.76 12.4 11 11 1013.1 0 24.1 28.8 47.5 124.9 124.4 429.8
21 22:30 16.2 77 10.62 12.2 11 15 1013.1 0 23.8 28.5 46.8 123.0 122.2 421.9
21 22:20 16.6 75 10.59 12.2 13 15 1013.1 0 23.7 28.3 46.4 122.1 121.1 418.3
21 22:10 17.1 72 10.48 12 13 15 1013.1 0 23.4 28.0 45.6 120.1 118.9 410.5
21 22:00 17.5 70 10.44 12 17 20 1013.1 0 23.3 27.8 45.2 119.0 117.7 406.5
21 21:50 17.8 67 10.17 11.6 19 22 1013.1 0 22.7 27.2 44.0 115.7 113.7 392.4
21 21:40 17.8 66 10.02 11.4 15 19 1013.1 0 22.4 27.0 43.4 114.1 111.7 385.5
21 21:30 18.1 64 9.89 11.2 19 24 1013.1 0 22.1 26.7 42.7 112.3 109.6 378.1
21 21:20 18.5 63 9.97 11.3 20 24 1013.1 0 22.3 26.7 42.8 112.5 110.0 379.8
21 21:10 18.9 62 10.04 11.5 22 26 1013.1 0 22.4 26.7 42.9 112.7 110.4 381.1
21 21:00 19.1 61 10 11.4 20 30 1013.1 0 22.3 26.6 42.6 112.0 109.6 378.3
21 20:50 19.4 60 10.01 11.4 20 24 1013.1 0 22.3 26.5 42.5 111.7 109.3 377.3
21 20:40 19.6 61 10.3 11.9 19 22 1013.1 0 22.9 26.9 43.5 114.4 112.7 389.4
21 20:30 20.1 59 10.26 11.8 22 32 1013.1 0 22.8 26.7 43.1 113.3 111.5 385.2
21 20:20 20.6 58 10.38 12.1 22 28 1013.1 0 23.0 26.7 43.3 113.8 112.3 388.1
21 20:10 21.2 57 10.56 12.3 22 26 1013.1 0 23.4 26.8 43.7 114.8 113.8 393.2
21 20:00 21.7 55 10.49 12.3 24 35 1013.1 0 23.2 26.6 43.1 113.4 112.2 387.6

Last Refresh: 22-Jan-2022 12:28:08

Bureau of Meteorology